createdAt,value
2023-09-29T00:00:26.505Z,16.47
2023-09-29T00:01:29.468Z,16.45
2023-09-29T00:02:31.951Z,16.43
2023-09-29T00:03:34.604Z,16.41
2023-09-29T00:04:38.125Z,16.40
2023-09-29T00:05:40.603Z,16.38
2023-09-29T00:06:42.948Z,16.37
2023-09-29T00:07:45.677Z,16.36
2023-09-29T00:08:48.010Z,16.33
2023-09-29T00:09:50.586Z,16.31
2023-09-29T00:10:53.076Z,16.29
2023-09-29T00:11:55.536Z,16.30
2023-09-29T00:12:59.894Z,16.28
2023-09-29T00:14:02.360Z,16.26
2023-09-29T00:15:06.097Z,16.26
2023-09-29T00:16:09.007Z,16.23
2023-09-29T00:17:12.931Z,16.21
2023-09-29T00:18:16.979Z,16.19
2023-09-29T00:19:19.418Z,16.18
2023-09-29T00:20:27.630Z,16.17
2023-09-29T00:21:30.168Z,16.17
2023-09-29T00:22:33.732Z,16.14
2023-09-29T00:23:36.523Z,16.12
2023-09-29T00:24:39.005Z,16.11
2023-09-29T00:25:41.534Z,16.09
2023-09-29T00:26:43.924Z,16.08
2023-09-29T00:27:46.573Z,16.07
2023-09-29T00:28:49.092Z,16.04
2023-09-29T00:29:53.142Z,16.05
2023-09-29T00:30:55.591Z,16.02
2023-09-29T00:31:58.545Z,16.00
2023-09-29T00:33:03.731Z,16.00
2023-09-29T00:34:07.477Z,15.98
2023-09-29T00:35:11.371Z,15.97
2023-09-29T00:36:13.754Z,15.95
2023-09-29T00:37:16.447Z,15.95
2023-09-29T00:38:18.820Z,15.95
2023-09-29T00:39:21.703Z,15.94
2023-09-29T00:40:24.988Z,15.94
2023-09-29T00:41:27.469Z,15.93
2023-09-29T00:42:30.018Z,15.91
2023-09-29T00:43:33.552Z,15.91
2023-09-29T00:44:36.319Z,15.89
2023-09-29T00:45:39.127Z,15.90
2023-09-29T00:46:41.745Z,15.88
2023-09-29T00:47:46.659Z,15.86
2023-09-29T00:48:50.969Z,15.85
2023-09-29T00:49:53.400Z,15.85
2023-09-29T00:50:55.808Z,15.84
2023-09-29T00:52:02.400Z,15.83
2023-09-29T00:53:11.482Z,15.81
2023-09-29T00:54:15.609Z,15.81
2023-09-29T00:55:23.552Z,15.80
2023-09-29T00:56:26.225Z,15.78
2023-09-29T00:57:29.285Z,15.79
2023-09-29T00:58:32.118Z,15.76
2023-09-29T00:59:35.539Z,15.76
2023-09-29T01:00:39.474Z,15.76
2023-09-29T01:01:43.030Z,15.73
2023-09-29T01:02:45.846Z,15.74
2023-09-29T01:03:49.144Z,15.73
2023-09-29T01:04:51.635Z,15.72
2023-09-29T01:05:54.368Z,15.71
2023-09-29T01:06:58.248Z,15.72
2023-09-29T01:08:00.760Z,15.71
2023-09-29T01:09:05.652Z,15.71
2023-09-29T01:10:12.292Z,15.72
2023-09-29T01:11:14.704Z,15.72
2023-09-29T01:12:28.626Z,15.70
2023-09-29T01:13:31.809Z,15.70
2023-09-29T01:14:34.274Z,15.70
2023-09-29T01:15:38.180Z,15.71
2023-09-29T01:16:42.394Z,15.70
2023-09-29T01:17:45.241Z,15.74
2023-09-29T01:18:48.583Z,15.71
2023-09-29T01:19:51.052Z,15.70
2023-09-29T01:20:54.482Z,15.69
2023-09-29T01:21:58.150Z,15.71
2023-09-29T01:23:03.156Z,15.70
2023-09-29T01:24:08.710Z,15.71
2023-09-29T01:25:11.751Z,15.72
2023-09-29T01:26:14.202Z,15.71
2023-09-29T01:27:16.515Z,15.72
2023-09-29T01:28:20.051Z,15.71
2023-09-29T01:29:22.505Z,15.70
2023-09-29T01:30:27.169Z,15.73
2023-09-29T01:31:29.630Z,15.71
2023-09-29T01:32:32.103Z,15.70
2023-09-29T01:33:34.671Z,15.70
2023-09-29T01:34:38.220Z,15.71
2023-09-29T01:35:45.542Z,15.70
2023-09-29T01:36:49.929Z,15.72
2023-09-29T01:37:56.750Z,15.70
2023-09-29T01:38:59.526Z,15.70
2023-09-29T01:40:02.081Z,15.71
2023-09-29T01:41:04.433Z,15.69
2023-09-29T01:42:08.837Z,15.70
2023-09-29T01:43:11.859Z,15.71
2023-09-29T01:44:14.486Z,15.69
2023-09-29T01:45:17.732Z,15.70
2023-09-29T01:46:20.414Z,15.68
2023-09-29T01:47:23.435Z,15.67
2023-09-29T01:48:26.014Z,15.67
2023-09-29T01:49:28.531Z,15.67
2023-09-29T01:50:34.401Z,15.66
2023-09-29T01:51:36.930Z,15.63
2023-09-29T01:52:39.664Z,15.61
2023-09-29T01:53:42.087Z,15.61
2023-09-29T01:54:44.781Z,15.60
2023-09-29T01:55:47.431Z,15.59
2023-09-29T01:56:49.986Z,15.59
2023-09-29T01:57:58.026Z,15.58
2023-09-29T01:59:02.501Z,15.56
2023-09-29T02:00:06.331Z,15.55
2023-09-29T02:01:15.916Z,15.55
2023-09-29T02:02:18.330Z,15.53
2023-09-29T02:03:21.060Z,15.54
2023-09-29T02:04:23.625Z,15.53
2023-09-29T02:05:26.178Z,15.53
2023-09-29T02:06:29.243Z,15.52
2023-09-29T02:07:31.707Z,15.51
2023-09-29T02:08:34.230Z,15.50
2023-09-29T02:09:37.660Z,15.47
2023-09-29T02:10:40.621Z,15.49
2023-09-29T02:11:43.602Z,15.48
2023-09-29T02:12:56.091Z,15.47
2023-09-29T02:13:58.640Z,15.47
2023-09-29T02:15:02.294Z,15.48
2023-09-29T02:16:11.148Z,15.46
2023-09-29T02:17:14.570Z,15.44
2023-09-29T02:18:17.091Z,15.44
2023-09-29T02:19:19.896Z,15.44
2023-09-29T02:20:32.374Z,15.41
2023-09-29T02:21:35.001Z,15.43
2023-09-29T02:22:37.407Z,15.42
2023-09-29T02:23:39.802Z,15.41
2023-09-29T02:24:42.269Z,15.41
2023-09-29T02:25:45.530Z,15.39
2023-09-29T02:26:47.959Z,15.40
2023-09-29T02:27:50.551Z,15.39
2023-09-29T02:28:56.349Z,15.39
2023-09-29T02:29:59.893Z,15.40
2023-09-29T02:31:03.742Z,15.39
2023-09-29T02:32:06.498Z,15.40
2023-09-29T02:33:10.230Z,15.41
2023-09-29T02:34:13.912Z,15.39
2023-09-29T02:35:17.477Z,15.35
2023-09-29T02:36:22.895Z,15.37
2023-09-29T02:37:25.234Z,15.37
2023-09-29T02:38:27.713Z,15.37
2023-09-29T02:39:31.000Z,15.36
2023-09-29T02:40:33.390Z,15.35
2023-09-29T02:41:36.683Z,15.36
2023-09-29T02:42:39.564Z,15.37
2023-09-29T02:43:41.905Z,15.37
2023-09-29T02:44:44.904Z,15.37
2023-09-29T02:45:47.323Z,15.36
2023-09-29T02:46:49.776Z,15.35
2023-09-29T02:47:53.780Z,15.35
2023-09-29T02:48:56.521Z,15.34
2023-09-29T02:49:59.862Z,15.32
2023-09-29T02:51:02.215Z,15.32
2023-09-29T02:52:05.736Z,15.34
2023-09-29T02:53:09.551Z,15.31
2023-09-29T02:54:12.234Z,15.31
2023-09-29T02:55:16.968Z,15.31
2023-09-29T02:56:19.943Z,15.30
2023-09-29T02:57:23.688Z,15.31
2023-09-29T02:58:26.196Z,15.32
2023-09-29T02:59:28.557Z,15.30
2023-09-29T03:00:32.986Z,15.31
2023-09-29T03:01:36.346Z,15.31
2023-09-29T03:02:38.873Z,15.30
2023-09-29T03:03:45.570Z,15.29
2023-09-29T03:04:48.817Z,15.26
2023-09-29T03:05:51.225Z,15.26
2023-09-29T03:06:53.790Z,15.26
2023-09-29T03:07:56.966Z,15.23
2023-09-29T03:09:00.484Z,15.24
2023-09-29T03:10:07.586Z,15.22
2023-09-29T03:11:13.697Z,15.22
2023-09-29T03:12:18.218Z,15.20
2023-09-29T03:13:20.670Z,15.23
2023-09-29T03:14:23.312Z,15.21
2023-09-29T03:15:28.182Z,15.20
2023-09-29T03:16:30.938Z,15.20
2023-09-29T03:17:36.034Z,15.19
2023-09-29T03:18:40.650Z,15.19
2023-09-29T03:19:43.534Z,15.19
2023-09-29T03:20:45.999Z,15.18
2023-09-29T03:21:49.854Z,15.17
2023-09-29T03:22:53.305Z,15.15
2023-09-29T03:23:56.028Z,15.14
2023-09-29T03:24:59.289Z,15.17
2023-09-29T03:26:02.918Z,15.17
2023-09-29T03:27:05.488Z,15.16
2023-09-29T03:28:12.488Z,15.15
2023-09-29T03:29:16.420Z,15.17
2023-09-29T03:30:18.952Z,15.17
2023-09-29T03:31:23.638Z,15.16
2023-09-29T03:32:26.808Z,15.17
2023-09-29T03:33:31.048Z,15.18
2023-09-29T03:34:33.445Z,15.17
2023-09-29T03:35:35.889Z,15.15
2023-09-29T03:36:38.356Z,15.14
2023-09-29T03:37:41.219Z,15.12
2023-09-29T03:38:44.528Z,15.12
2023-09-29T03:39:49.362Z,15.11
2023-09-29T03:40:54.005Z,15.11
2023-09-29T03:41:56.892Z,15.12
2023-09-29T03:42:59.841Z,15.11
2023-09-29T03:44:02.714Z,15.14
2023-09-29T03:45:07.186Z,15.11
2023-09-29T03:46:20.913Z,15.10
2023-09-29T03:47:23.256Z,15.07
2023-09-29T03:48:27.189Z,15.08
2023-09-29T03:49:32.410Z,15.09
2023-09-29T03:50:35.507Z,15.07
2023-09-29T03:51:39.968Z,15.05
2023-09-29T03:52:47.646Z,15.05
2023-09-29T03:53:54.174Z,15.05
2023-09-29T03:54:56.650Z,15.05
2023-09-29T03:56:00.688Z,15.04
2023-09-29T03:57:05.431Z,15.03
2023-09-29T03:58:07.833Z,15.04
2023-09-29T03:59:10.433Z,15.05
2023-09-29T04:00:15.501Z,15.05
2023-09-29T04:01:18.456Z,15.06
2023-09-29T04:02:22.076Z,15.07
2023-09-29T04:03:24.556Z,15.05
2023-09-29T04:04:27.216Z,15.06
2023-09-29T04:05:29.652Z,15.06
2023-09-29T04:06:32.271Z,15.05
2023-09-29T04:07:40.172Z,15.07
2023-09-29T04:08:43.880Z,15.06
2023-09-29T04:09:46.317Z,15.07
2023-09-29T04:10:48.643Z,15.05
2023-09-29T04:11:50.998Z,15.05
2023-09-29T04:12:53.415Z,15.04
2023-09-29T04:13:55.895Z,15.05
2023-09-29T04:14:58.368Z,15.05
2023-09-29T04:16:07.961Z,15.05
2023-09-29T04:17:10.287Z,15.05
2023-09-29T04:18:13.459Z,15.05
2023-09-29T04:19:17.174Z,15.01
2023-09-29T04:20:19.503Z,15.02
2023-09-29T04:21:21.870Z,15.00
2023-09-29T04:22:25.454Z,15.01
2023-09-29T04:23:28.546Z,15.00
2023-09-29T04:24:31.012Z,14.98
2023-09-29T04:25:33.455Z,14.97
2023-09-29T04:26:36.957Z,14.97
2023-09-29T04:27:40.742Z,14.99
2023-09-29T04:28:44.083Z,14.99
2023-09-29T04:29:46.823Z,15.01
2023-09-29T04:30:49.373Z,14.99
2023-09-29T04:31:51.726Z,14.99
2023-09-29T04:32:54.366Z,14.99
2023-09-29T04:33:56.763Z,14.98
2023-09-29T04:34:59.420Z,14.99
2023-09-29T04:36:01.936Z,14.97
2023-09-29T04:37:04.488Z,14.98
2023-09-29T04:38:06.983Z,14.97
2023-09-29T04:39:09.586Z,14.98
2023-09-29T04:40:13.266Z,14.97
2023-09-29T04:41:17.188Z,14.98
2023-09-29T04:42:19.764Z,14.96
2023-09-29T04:43:22.150Z,14.97
2023-09-29T04:44:24.565Z,14.97
2023-09-29T04:45:27.003Z,14.95
2023-09-29T04:46:30.514Z,14.96
2023-09-29T04:47:34.032Z,14.95
2023-09-29T04:48:36.948Z,14.95
2023-09-29T04:49:42.574Z,14.96
2023-09-29T04:50:45.002Z,14.95
2023-09-29T04:51:47.478Z,14.94
2023-09-29T04:52:49.904Z,14.94
2023-09-29T04:53:52.599Z,14.94
2023-09-29T04:54:55.222Z,14.93
2023-09-29T04:56:02.370Z,14.94
2023-09-29T04:57:04.859Z,14.96
2023-09-29T04:58:07.254Z,14.94
2023-09-29T04:59:10.212Z,14.94
2023-09-29T05:00:13.132Z,14.94
2023-09-29T05:01:22.205Z,14.94
2023-09-29T05:02:26.274Z,14.93
2023-09-29T05:03:28.855Z,14.95
2023-09-29T05:04:31.502Z,14.93
2023-09-29T05:05:34.791Z,14.92
2023-09-29T05:06:37.240Z,14.93
2023-09-29T05:07:39.589Z,14.92
2023-09-29T05:08:41.928Z,14.94
2023-09-29T05:09:47.294Z,14.93
2023-09-29T05:10:49.869Z,14.95
2023-09-29T05:11:52.292Z,14.94
2023-09-29T05:12:54.660Z,14.93
2023-09-29T05:13:57.318Z,14.96
2023-09-29T05:14:59.729Z,14.96
2023-09-29T05:16:03.166Z,14.95
2023-09-29T05:17:05.681Z,14.94
2023-09-29T05:18:08.299Z,14.93
2023-09-29T05:19:11.569Z,14.94
2023-09-29T05:20:14.380Z,14.94
2023-09-29T05:21:17.105Z,14.96
2023-09-29T05:22:20.636Z,14.97
2023-09-29T05:23:23.045Z,14.98
2023-09-29T05:24:25.487Z,14.97
2023-09-29T05:25:28.381Z,14.98
2023-09-29T05:26:30.751Z,14.99
2023-09-29T05:27:34.102Z,15.00
2023-09-29T05:28:38.421Z,15.03
2023-09-29T05:29:41.211Z,15.03
2023-09-29T05:30:56.937Z,15.03
2023-09-29T05:31:59.588Z,15.03
2023-09-29T05:33:02.219Z,15.03
2023-09-29T05:34:04.670Z,15.05
2023-09-29T05:35:08.525Z,15.06
2023-09-29T05:36:10.931Z,15.07
2023-09-29T05:37:13.454Z,15.08
2023-09-29T05:38:15.922Z,15.10
2023-09-29T05:39:19.075Z,15.10
2023-09-29T05:40:21.413Z,15.11
2023-09-29T05:41:23.976Z,15.13
2023-09-29T05:42:36.889Z,15.15
2023-09-29T05:43:47.726Z,15.18
2023-09-29T05:44:50.137Z,15.18
2023-09-29T05:45:52.727Z,15.19
2023-09-29T05:46:55.591Z,15.23
2023-09-29T05:47:58.026Z,15.27
2023-09-29T05:49:00.450Z,15.29
2023-09-29T05:50:16.902Z,15.33
2023-09-29T05:51:21.341Z,15.37
2023-09-29T05:52:26.694Z,15.40
2023-09-29T05:53:29.009Z,15.43
2023-09-29T05:54:32.492Z,15.48
2023-09-29T05:55:36.208Z,15.52
2023-09-29T05:56:38.764Z,15.56
2023-09-29T05:57:41.120Z,15.62
2023-09-29T05:58:43.566Z,15.66
2023-09-29T05:59:47.827Z,15.72
2023-09-29T06:00:50.165Z,15.78
2023-09-29T06:02:01.938Z,15.83
2023-09-29T06:03:11.348Z,15.88
2023-09-29T06:04:14.354Z,15.95
2023-09-29T06:05:16.907Z,16.03
2023-09-29T06:06:20.027Z,16.09
2023-09-29T06:07:22.652Z,16.16
2023-09-29T06:08:26.932Z,16.23
2023-09-29T06:09:32.859Z,16.31
2023-09-29T06:10:35.246Z,16.38
2023-09-29T06:11:37.577Z,16.45
2023-09-29T06:12:39.972Z,16.54
2023-09-29T06:13:43.638Z,16.61
2023-09-29T06:14:46.187Z,16.69
2023-09-29T06:15:48.614Z,16.79
2023-09-29T06:16:51.252Z,16.87
2023-09-29T06:17:53.794Z,16.96
2023-09-29T06:18:56.423Z,17.06
2023-09-29T06:19:59.703Z,17.17
2023-09-29T06:21:02.591Z,17.26
2023-09-29T06:22:06.185Z,17.35
2023-09-29T06:23:09.138Z,17.45
2023-09-29T06:24:12.023Z,17.53
2023-09-29T06:25:14.616Z,17.64
2023-09-29T06:26:17.010Z,17.73
2023-09-29T06:27:19.399Z,17.83
2023-09-29T06:28:24.892Z,17.93
2023-09-29T06:29:27.619Z,18.02
2023-09-29T06:30:30.487Z,18.13
2023-09-29T06:31:32.884Z,18.23
2023-09-29T06:32:36.416Z,18.33
2023-09-29T06:33:40.107Z,18.41
2023-09-29T06:34:42.884Z,18.49
2023-09-29T06:35:45.307Z,18.60
2023-09-29T06:36:47.748Z,18.69
2023-09-29T06:37:50.281Z,18.76
2023-09-29T06:38:52.816Z,18.87
2023-09-29T06:39:55.724Z,18.98
2023-09-29T06:41:00.109Z,19.07
2023-09-29T06:42:04.522Z,19.16
2023-09-29T06:43:07.841Z,19.26
2023-09-29T06:44:10.319Z,19.35
2023-09-29T06:45:13.178Z,19.45
2023-09-29T06:46:15.982Z,19.54
2023-09-29T06:47:18.439Z,19.64
2023-09-29T06:48:21.196Z,19.73
2023-09-29T06:49:23.950Z,19.82
2023-09-29T06:50:26.344Z,19.92
2023-09-29T06:51:30.785Z,20.01
2023-09-29T06:52:36.290Z,20.11
2023-09-29T06:53:38.713Z,20.22
2023-09-29T06:54:41.140Z,20.30
2023-09-29T06:55:43.479Z,20.39
2023-09-29T06:56:46.017Z,20.48
2023-09-29T06:57:49.672Z,20.55
2023-09-29T06:58:52.232Z,20.64
2023-09-29T06:59:55.034Z,20.71
2023-09-29T07:01:01.804Z,20.80
2023-09-29T07:02:05.011Z,20.87
2023-09-29T07:03:14.369Z,20.93
2023-09-29T07:04:18.228Z,21.00
2023-09-29T07:05:20.762Z,21.06
2023-09-29T07:06:24.858Z,21.12
2023-09-29T07:07:27.636Z,21.19
2023-09-29T07:08:31.499Z,21.28
2023-09-29T07:09:37.558Z,21.32
2023-09-29T07:10:40.121Z,21.36
2023-09-29T07:11:43.571Z,21.41
2023-09-29T07:12:47.457Z,21.44
2023-09-29T07:13:50.829Z,21.51
2023-09-29T07:14:53.289Z,21.55
2023-09-29T07:15:55.653Z,21.61
2023-09-29T07:16:58.094Z,21.65
2023-09-29T07:18:00.752Z,21.70
2023-09-29T07:19:04.804Z,21.75
2023-09-29T07:20:07.908Z,21.80
2023-09-29T07:21:12.613Z,21.84
2023-09-29T07:22:15.871Z,21.88
2023-09-29T07:23:18.397Z,21.94
2023-09-29T07:24:22.710Z,22.00
2023-09-29T07:25:27.244Z,22.07
2023-09-29T07:26:30.610Z,22.13
2023-09-29T07:27:33.603Z,22.20
2023-09-29T07:28:35.961Z,22.26
2023-09-29T07:29:38.899Z,22.34
2023-09-29T07:30:46.262Z,22.41
2023-09-29T07:31:49.747Z,22.47
2023-09-29T07:32:52.095Z,22.56
2023-09-29T07:33:54.698Z,22.62
2023-09-29T07:34:57.250Z,22.69
2023-09-29T07:36:00.034Z,22.74
2023-09-29T07:37:02.649Z,22.81
2023-09-29T07:38:06.273Z,22.88
2023-09-29T07:39:08.764Z,22.94
2023-09-29T07:40:11.603Z,23.00
2023-09-29T07:41:14.296Z,23.04
2023-09-29T07:42:18.810Z,23.10
2023-09-29T07:43:21.175Z,23.15
2023-09-29T07:44:23.984Z,23.17
2023-09-29T07:45:26.451Z,23.22
2023-09-29T07:46:29.961Z,23.29
2023-09-29T07:47:32.557Z,23.33
2023-09-29T07:48:35.108Z,23.37
2023-09-29T07:49:41.842Z,23.42
2023-09-29T07:50:44.521Z,23.47
2023-09-29T07:51:48.173Z,23.51
2023-09-29T07:52:51.907Z,23.57
2023-09-29T07:53:54.996Z,23.59
2023-09-29T07:54:57.561Z,23.64
2023-09-29T07:55:59.917Z,23.69
2023-09-29T07:57:03.584Z,23.75
2023-09-29T07:58:07.816Z,23.80
2023-09-29T07:59:10.177Z,23.86
2023-09-29T08:00:18.083Z,23.93
2023-09-29T08:01:20.608Z,24.00
2023-09-29T08:02:22.989Z,24.05
2023-09-29T08:03:25.858Z,24.12
2023-09-29T08:04:28.429Z,24.19
2023-09-29T08:05:30.807Z,24.27
2023-09-29T08:06:33.302Z,24.32
2023-09-29T08:07:36.110Z,24.40
2023-09-29T08:08:38.637Z,24.46
2023-09-29T08:09:41.208Z,24.52
2023-09-29T08:10:43.678Z,24.62
2023-09-29T08:11:46.247Z,24.70
2023-09-29T08:12:48.883Z,24.76
2023-09-29T08:13:53.661Z,24.84
2023-09-29T08:14:57.207Z,24.93
2023-09-29T08:15:59.761Z,25.00
2023-09-29T08:17:02.492Z,25.08
2023-09-29T08:18:06.372Z,25.15
2023-09-29T08:19:10.931Z,25.22
2023-09-29T08:20:16.188Z,25.25
2023-09-29T08:21:18.944Z,25.30
2023-09-29T08:22:30.211Z,25.37
2023-09-29T08:23:36.758Z,25.42
2023-09-29T08:24:40.651Z,25.46
2023-09-29T08:25:44.718Z,25.54
2023-09-29T08:26:47.274Z,25.59
2023-09-29T08:27:49.771Z,25.64
2023-09-29T08:28:52.129Z,25.68
2023-09-29T08:29:55.987Z,25.71
2023-09-29T08:31:00.122Z,25.75
2023-09-29T08:32:02.805Z,25.79
2023-09-29T08:33:18.901Z,25.81
2023-09-29T08:34:30.497Z,25.86
2023-09-29T08:35:32.982Z,25.92
2023-09-29T08:36:35.528Z,25.95
2023-09-29T08:37:38.001Z,26.00
2023-09-29T08:38:40.421Z,26.05
2023-09-29T08:39:42.861Z,26.08
2023-09-29T08:40:48.061Z,26.12
2023-09-29T08:42:06.842Z,26.17
2023-09-29T08:43:12.286Z,26.21
2023-09-29T08:44:19.561Z,26.25
2023-09-29T08:45:22.971Z,26.30
2023-09-29T08:46:25.527Z,26.34
2023-09-29T08:47:31.703Z,26.39
2023-09-29T08:48:35.183Z,26.46
2023-09-29T08:49:49.747Z,26.54
2023-09-29T08:50:57.354Z,26.60
2023-09-29T08:52:02.083Z,26.65
2023-09-29T08:53:05.607Z,26.74
2023-09-29T08:54:09.791Z,26.78
2023-09-29T08:55:15.994Z,26.85
2023-09-29T08:56:20.254Z,26.91
2023-09-29T08:57:25.132Z,27.00
2023-09-29T08:58:29.966Z,27.05
2023-09-29T08:59:33.946Z,27.09
2023-09-29T09:00:41.850Z,27.15
2023-09-29T09:01:47.503Z,27.21
2023-09-29T09:02:50.676Z,27.26
2023-09-29T09:03:53.496Z,27.30
2023-09-29T09:04:58.457Z,27.34
2023-09-29T09:06:00.867Z,27.37
2023-09-29T09:07:03.657Z,27.40
2023-09-29T09:08:06.361Z,27.43
2023-09-29T09:09:10.386Z,27.44
2023-09-29T09:10:23.193Z,27.46
2023-09-29T09:11:44.717Z,27.49
2023-09-29T09:12:48.008Z,27.47
2023-09-29T09:14:00.493Z,27.48
2023-09-29T09:15:10.476Z,27.47
2023-09-29T09:16:14.789Z,27.44
2023-09-29T09:17:18.131Z,27.44
2023-09-29T09:18:20.591Z,27.43
2023-09-29T09:19:23.141Z,27.41
2023-09-29T09:20:26.281Z,27.40
2023-09-29T09:21:34.757Z,27.39
2023-09-29T09:23:45.644Z,27.35
2023-09-29T09:24:49.834Z,27.34
2023-09-29T09:25:54.487Z,27.32
2023-09-29T09:27:03.813Z,27.31
2023-09-29T09:28:07.692Z,27.30
2023-09-29T09:29:10.672Z,27.28
2023-09-29T09:30:25.452Z,27.27
2023-09-29T09:31:28.726Z,27.26
2023-09-29T09:32:33.084Z,27.25
2023-09-29T09:33:37.220Z,27.25
2023-09-29T09:34:41.419Z,27.26
2023-09-29T09:35:44.145Z,27.26
2023-09-29T09:36:52.029Z,27.27
2023-09-29T09:37:54.930Z,27.26
2023-09-29T09:38:57.508Z,27.28
2023-09-29T09:40:01.268Z,27.28
2023-09-29T09:41:04.335Z,27.29
2023-09-29T09:42:07.649Z,27.30
2023-09-29T09:43:12.448Z,27.31
2023-09-29T09:44:14.824Z,27.30
2023-09-29T09:45:17.544Z,27.32
2023-09-29T09:46:21.767Z,27.31
2023-09-29T09:47:26.749Z,27.33
2023-09-29T09:48:52.040Z,27.37
2023-09-29T09:49:58.960Z,27.38
2023-09-29T09:51:04.436Z,27.40
2023-09-29T09:52:14.092Z,27.44
2023-09-29T09:53:20.470Z,27.48
2023-09-29T09:54:32.023Z,27.53
2023-09-29T09:55:43.000Z,27.58
2023-09-29T09:57:02.926Z,27.61
2023-09-29T09:58:11.046Z,27.65
2023-09-29T09:59:17.093Z,27.70
2023-09-29T10:00:21.166Z,27.74
2023-09-29T10:01:26.799Z,27.79
2023-09-29T10:02:30.418Z,27.84
2023-09-29T10:03:34.202Z,27.88
2023-09-29T10:04:39.769Z,27.93
2023-09-29T10:05:43.950Z,27.99
2023-09-29T10:06:46.492Z,28.03
2023-09-29T10:07:50.129Z,28.06
2023-09-29T10:08:59.899Z,28.10
2023-09-29T10:10:02.476Z,28.14
2023-09-29T10:11:12.658Z,28.18
2023-09-29T10:12:30.459Z,28.21
2023-09-29T10:13:36.887Z,28.24
2023-09-29T10:14:46.175Z,28.27
2023-09-29T10:15:57.946Z,28.31
2023-09-29T10:17:04.540Z,28.33
2023-09-29T10:18:21.736Z,28.36
2023-09-29T10:19:24.216Z,28.38
2023-09-29T10:20:30.307Z,28.39
2023-09-29T10:21:44.147Z,28.44
2023-09-29T10:22:49.358Z,28.48
2023-09-29T10:23:52.092Z,28.50
2023-09-29T10:24:58.698Z,28.52
2023-09-29T10:26:04.183Z,28.56
2023-09-29T10:27:13.290Z,28.58
2023-09-29T10:28:19.051Z,28.61
2023-09-29T10:29:28.268Z,28.65
2023-09-29T10:30:31.727Z,28.68
2023-09-29T10:31:34.166Z,28.71
2023-09-29T10:32:36.644Z,28.75
2023-09-29T10:33:56.357Z,28.80
2023-09-29T10:35:06.497Z,28.83
2023-09-29T10:36:11.014Z,28.86
2023-09-29T10:37:14.801Z,28.89
2023-09-29T10:38:24.645Z,28.94
2023-09-29T10:39:28.701Z,28.95
2023-09-29T10:40:34.036Z,28.97
2023-09-29T10:41:38.721Z,28.99
2023-09-29T10:42:43.678Z,29.02
2023-09-29T10:43:49.726Z,29.03
2023-09-29T10:44:58.603Z,29.06
2023-09-29T10:46:09.604Z,29.09
2023-09-29T10:47:25.982Z,29.12
2023-09-29T10:48:31.679Z,29.16
2023-09-29T10:49:36.089Z,29.20
2023-09-29T10:50:46.312Z,29.23
2023-09-29T10:51:48.788Z,29.27
2023-09-29T10:52:51.098Z,29.32
2023-09-29T10:53:54.154Z,29.35
2023-09-29T10:55:00.543Z,29.37
2023-09-29T10:56:05.346Z,29.42
2023-09-29T10:57:13.183Z,29.47
2023-09-29T10:58:17.040Z,29.50
2023-09-29T10:59:19.830Z,29.53
2023-09-29T11:00:22.435Z,29.55
2023-09-29T11:01:35.630Z,29.58
2023-09-29T11:02:38.352Z,29.60
2023-09-29T11:03:41.064Z,29.64
2023-09-29T11:04:48.296Z,29.67
2023-09-29T11:05:53.957Z,29.68
2023-09-29T11:06:56.400Z,29.71
2023-09-29T11:08:00.502Z,29.71
2023-09-29T11:09:03.193Z,29.73
2023-09-29T11:10:12.990Z,29.74
2023-09-29T11:11:15.468Z,29.75
2023-09-29T11:12:18.902Z,29.76
2023-09-29T11:13:21.308Z,29.79
2023-09-29T11:14:26.355Z,29.78
2023-09-29T11:15:30.066Z,29.79
2023-09-29T11:16:34.404Z,29.79
2023-09-29T11:17:52.233Z,29.81
2023-09-29T11:18:58.097Z,29.81
2023-09-29T11:20:01.091Z,29.82
2023-09-29T11:21:10.523Z,29.84
2023-09-29T11:22:19.919Z,29.84
2023-09-29T11:23:22.467Z,29.83
2023-09-29T11:24:24.983Z,29.85
2023-09-29T11:25:27.620Z,29.87
2023-09-29T11:26:31.879Z,29.89
2023-09-29T11:27:35.415Z,29.87
2023-09-29T11:28:56.532Z,29.89
2023-09-29T11:29:59.162Z,29.89
2023-09-29T11:31:02.809Z,29.89
2023-09-29T11:32:05.540Z,29.91
2023-09-29T11:33:12.451Z,29.91
2023-09-29T11:34:16.618Z,29.91
2023-09-29T11:35:23.000Z,29.92
2023-09-29T11:36:28.786Z,29.93
2023-09-29T11:37:31.628Z,29.94
2023-09-29T11:38:35.035Z,29.94
2023-09-29T11:39:39.711Z,29.95
2023-09-29T11:40:42.787Z,29.95
2023-09-29T11:41:49.105Z,29.94
2023-09-29T11:42:51.607Z,29.93
2023-09-29T11:43:54.230Z,29.94
2023-09-29T11:44:56.806Z,29.93
2023-09-29T11:45:59.249Z,29.93
2023-09-29T11:47:01.711Z,29.94
2023-09-29T11:48:04.606Z,29.93
2023-09-29T11:49:08.807Z,29.93
2023-09-29T11:50:14.061Z,29.93
2023-09-29T11:51:16.903Z,29.91
2023-09-29T11:52:19.421Z,29.91
2023-09-29T11:53:22.181Z,29.90
2023-09-29T11:54:24.657Z,29.89
2023-09-29T11:55:27.324Z,29.88
2023-09-29T11:56:29.679Z,29.86
2023-09-29T11:57:32.199Z,29.85
2023-09-29T11:58:34.857Z,29.85
2023-09-29T11:59:37.213Z,29.84
2023-09-29T12:00:43.570Z,29.82
2023-09-29T12:01:46.058Z,29.82
2023-09-29T12:02:48.857Z,29.81
2023-09-29T12:03:51.818Z,29.79
2023-09-29T12:04:54.366Z,29.78
2023-09-29T12:05:57.880Z,29.77
2023-09-29T12:07:00.367Z,29.76
2023-09-29T12:08:05.762Z,29.76
2023-09-29T12:09:08.279Z,29.75
2023-09-29T12:10:11.204Z,29.77
2023-09-29T12:11:18.069Z,29.74
2023-09-29T12:12:20.638Z,29.73
2023-09-29T12:13:23.128Z,29.73
2023-09-29T12:14:27.499Z,29.72
2023-09-29T12:15:32.485Z,29.72
2023-09-29T12:16:36.419Z,29.71
2023-09-29T12:17:39.812Z,29.71
2023-09-29T12:18:42.387Z,29.70
2023-09-29T12:19:44.801Z,29.67
2023-09-29T12:20:47.973Z,29.66
2023-09-29T12:21:50.347Z,29.66
2023-09-29T12:22:53.469Z,29.66
2023-09-29T12:23:57.585Z,29.65
2023-09-29T12:25:00.688Z,29.64
2023-09-29T12:26:03.792Z,29.62
2023-09-29T12:27:10.497Z,29.60
2023-09-29T12:28:12.944Z,29.60
2023-09-29T12:29:15.454Z,29.58
2023-09-29T12:30:19.689Z,29.58
2023-09-29T12:31:22.098Z,29.56
2023-09-29T12:32:24.634Z,29.56
2023-09-29T12:33:27.012Z,29.55
2023-09-29T12:34:36.008Z,29.54
2023-09-29T12:35:38.511Z,29.53
2023-09-29T12:36:41.126Z,29.51
2023-09-29T12:37:45.226Z,29.52
2023-09-29T12:38:47.628Z,29.49
2023-09-29T12:39:51.180Z,29.48
2023-09-29T12:40:54.339Z,29.47
2023-09-29T12:41:56.783Z,29.45
2023-09-29T12:43:01.580Z,29.44
2023-09-29T12:44:04.647Z,29.43
2023-09-29T12:45:07.924Z,29.42
2023-09-29T12:46:10.581Z,29.40
2023-09-29T12:47:13.418Z,29.39
2023-09-29T12:48:17.008Z,29.37
2023-09-29T12:49:20.741Z,29.38
2023-09-29T12:50:25.774Z,29.35
2023-09-29T12:51:28.937Z,29.34
2023-09-29T12:52:31.494Z,29.33
2023-09-29T12:53:33.859Z,29.30
2023-09-29T12:54:43.029Z,29.28
2023-09-29T12:55:46.749Z,29.27
2023-09-29T12:56:59.534Z,29.26
2023-09-29T12:58:08.779Z,29.23
2023-09-29T12:59:11.311Z,29.22
2023-09-29T13:00:20.720Z,29.20
2023-09-29T13:01:24.540Z,29.18
2023-09-29T13:02:33.238Z,29.15
2023-09-29T13:03:40.386Z,29.14
2023-09-29T13:04:44.884Z,29.10
2023-09-29T13:05:47.560Z,29.09
2023-09-29T13:06:50.033Z,29.06
2023-09-29T13:07:54.594Z,29.05
2023-09-29T13:08:57.565Z,29.03
2023-09-29T13:10:00.211Z,29.00
2023-09-29T13:11:05.192Z,28.97
2023-09-29T13:12:16.840Z,28.96
2023-09-29T13:13:27.561Z,28.94
2023-09-29T13:14:30.042Z,28.93
2023-09-29T13:15:35.642Z,28.91
2023-09-29T13:16:38.622Z,28.90
2023-09-29T13:17:41.504Z,28.88
2023-09-29T13:18:43.989Z,28.87
2023-09-29T13:19:46.431Z,28.84
2023-09-29T13:20:50.238Z,28.82
2023-09-29T13:21:55.957Z,28.80
2023-09-29T13:22:58.487Z,28.77
2023-09-29T13:24:02.289Z,28.75
2023-09-29T13:25:05.719Z,28.74
2023-09-29T13:26:10.330Z,28.71
2023-09-29T13:27:14.330Z,28.69
2023-09-29T13:28:16.810Z,28.67
2023-09-29T13:29:19.258Z,28.66
2023-09-29T13:30:22.317Z,28.62
2023-09-29T13:31:24.758Z,28.61
2023-09-29T13:32:27.119Z,28.60
2023-09-29T13:33:32.469Z,28.56
2023-09-29T13:34:35.054Z,28.55
2023-09-29T13:35:37.526Z,28.54
2023-09-29T13:36:40.342Z,28.53
2023-09-29T13:37:43.076Z,28.51
2023-09-29T13:38:46.991Z,28.50
2023-09-29T13:39:52.954Z,28.50
2023-09-29T13:40:56.498Z,28.45
2023-09-29T13:41:58.951Z,28.45
2023-09-29T13:43:03.706Z,28.44
2023-09-29T13:44:07.452Z,28.45
2023-09-29T13:45:12.734Z,28.44
2023-09-29T13:46:16.045Z,28.43
2023-09-29T13:47:18.420Z,28.41